sensor_id;sensor_type;location;lat;lon;timestamp;pressure;altitude;pressure_sealevel;temperature;humidity
4012;BME280;2020;48.682;9.024;2023-02-11T00:00:45;98370.88;;;-2.58;74.75
4012;BME280;2020;48.682;9.024;2023-02-11T00:03:11;98375.00;;;-2.51;74.81
4012;BME280;2020;48.682;9.024;2023-02-11T00:05:36;98369.16;;;-2.56;74.82
4012;BME280;2020;48.682;9.024;2023-02-11T00:08:01;98365.84;;;-2.61;74.77
4012;BME280;2020;48.682;9.024;2023-02-11T00:10:27;98366.00;;;-2.71;75.13
4012;BME280;2020;48.682;9.024;2023-02-11T00:12:52;98361.00;;;-2.77;74.72
4012;BME280;2020;48.682;9.024;2023-02-11T00:15:17;98356.09;;;-2.89;75.17
4012;BME280;2020;48.682;9.024;2023-02-11T00:17:42;98363.19;;;-3.07;76.23
4012;BME280;2020;48.682;9.024;2023-02-11T00:20:08;98362.31;;;-3.06;76.20
4012;BME280;2020;48.682;9.024;2023-02-11T00:22:33;98361.44;;;-3.05;76.39
4012;BME280;2020;48.682;9.024;2023-02-11T00:24:58;98362.09;;;-2.92;76.47
4012;BME280;2020;48.682;9.024;2023-02-11T00:27:24;98364.63;;;-2.90;76.13
4012;BME280;2020;48.682;9.024;2023-02-11T00:29:49;98359.81;;;-3.09;77.25
4012;BME280;2020;48.682;9.024;2023-02-11T00:32:14;98368.38;;;-3.13;77.20
4012;BME280;2020;48.682;9.024;2023-02-11T00:34:39;98366.66;;;-3.11;76.31
4012;BME280;2020;48.682;9.024;2023-02-11T00:37:05;98357.53;;;-3.26;76.49
4012;BME280;2020;48.682;9.024;2023-02-11T00:39:30;98354.34;;;-3.41;77.69
4012;BME280;2020;48.682;9.024;2023-02-11T00:41:56;98339.94;;;-3.43;77.50
4012;BME280;2020;48.682;9.024;2023-02-11T00:44:22;98338.03;;;-3.29;77.46
4012;BME280;2020;48.682;9.024;2023-02-11T00:46:47;98343.13;;;-3.29;77.83
4012;BME280;2020;48.682;9.024;2023-02-11T00:49:13;98332.84;;;-3.22;77.67
4012;BME280;2020;48.682;9.024;2023-02-11T00:51:38;98339.50;;;-3.12;77.71
4012;BME280;2020;48.682;9.024;2023-02-11T00:54:04;98337.72;;;-3.07;76.86
4012;BME280;2020;48.682;9.024;2023-02-11T00:56:29;98332.72;;;-3.13;77.49
4012;BME280;2020;48.682;9.024;2023-02-11T00:58:55;98336.06;;;-3.11;77.14
4012;BME280;2020;48.682;9.024;2023-02-11T01:01:20;98342.00;;;-3.11;76.70
4012;BME280;2020;48.682;9.024;2023-02-11T01:03:45;98342.84;;;-3.10;76.98
4012;BME280;2020;48.682;9.024;2023-02-11T01:06:11;98349.63;;;-3.09;77.01
4012;BME280;2020;48.682;9.024;2023-02-11T01:08:36;98351.38;;;-3.11;77.08
4012;BME280;2020;48.682;9.024;2023-02-11T01:11:05;98348.00;;;-3.13;76.75
4012;BME280;2020;48.682;9.024;2023-02-11T01:13:33;98337.84;;;-3.16;76.70
4012;BME280;2020;48.682;9.024;2023-02-11T01:15:58;98337.00;;;-3.17;76.33
4012;BME280;2020;48.682;9.024;2023-02-11T01:18:24;98334.50;;;-3.18;75.88
4012;BME280;2020;48.682;9.024;2023-02-11T01:20:51;98332.91;;;-3.26;77.04
4012;BME280;2020;48.682;9.024;2023-02-11T01:23:17;98328.00;;;-3.41;77.95
4012;BME280;2020;48.682;9.024;2023-02-11T01:25:42;98322.97;;;-3.44;77.27
4012;BME280;2020;48.682;9.024;2023-02-11T01:28:15;98317.78;;;-3.36;77.44
4012;BME280;2020;48.682;9.024;2023-02-11T01:30:41;98314.38;;;-3.37;77.65
4012;BME280;2020;48.682;9.024;2023-02-11T01:33:06;98307.53;;;-3.35;77.00
4012;BME280;2020;48.682;9.024;2023-02-11T01:35:31;98300.97;;;-3.48;76.94
4012;BME280;2020;48.682;9.024;2023-02-11T01:37:56;98296.00;;;-3.58;78.07
4012;BME280;2020;48.682;9.024;2023-02-11T01:40:22;98306.09;;;-3.52;78.13
4012;BME280;2020;48.682;9.024;2023-02-11T01:42:47;98297.50;;;-3.44;78.02
4012;BME280;2020;48.682;9.024;2023-02-11T01:48:24;98300.19;;;-3.52;78.33
4012;BME280;2020;48.682;9.024;2023-02-11T01:50:54;98297.59;;;-3.50;77.84
4012;BME280;2020;48.682;9.024;2023-02-11T01:53:21;98297.63;;;-3.54;76.93
4012;BME280;2020;48.682;9.024;2023-02-11T01:56:06;98289.28;;;-3.62;77.89
4012;BME280;2020;48.682;9.024;2023-02-11T01:58:52;98291.22;;;-3.79;78.84
4012;BME280;2020;48.682;9.024;2023-02-11T02:01:23;98295.28;;;-3.66;78.68
4012;BME280;2020;48.682;9.024;2023-02-11T02:03:53;98292.69;;;-3.63;78.52
4012;BME280;2020;48.682;9.024;2023-02-11T02:06:34;98284.03;;;-3.53;78.55
4012;BME280;2020;48.682;9.024;2023-02-11T02:09:08;98280.53;;;-3.45;78.43
4012;BME280;2020;48.682;9.024;2023-02-11T02:11:35;98284.78;;;-3.44;77.86
4012;BME280;2020;48.682;9.024;2023-02-11T02:14:01;98277.28;;;-3.54;78.13
4012;BME280;2020;48.682;9.024;2023-02-11T02:16:31;98280.69;;;-3.55;77.30
4012;BME280;2020;48.682;9.024;2023-02-11T02:30:36;98284.19;;;-3.62;78.00
4012;BME280;2020;48.682;9.024;2023-02-11T02:33:13;98275.69;;;-3.61;78.25
4012;BME280;2020;48.682;9.024;2023-02-11T02:38:47;98257.59;;;-4.00;78.11
4012;BME280;2020;48.682;9.024;2023-02-11T02:41:18;98259.31;;;-4.02;79.58
4012;BME280;2020;48.682;9.024;2023-02-11T02:43:50;98258.31;;;-3.90;79.06
4012;BME280;2020;48.682;9.024;2023-02-11T02:46:38;98252.31;;;-3.88;78.47
4012;BME280;2020;48.682;9.024;2023-02-11T02:49:05;98255.56;;;-3.76;78.20
4012;BME280;2020;48.682;9.024;2023-02-11T03:03:06;98245.22;;;-3.67;79.07
4012;BME280;2020;48.682;9.024;2023-02-11T03:08:50;98248.13;;;-3.90;79.65
4012;BME280;2020;48.682;9.024;2023-02-11T03:11:19;98251.53;;;-3.93;79.57
4012;BME280;2020;48.682;9.024;2023-02-11T03:13:47;98257.50;;;-3.94;79.81
4012;BME280;2020;48.682;9.024;2023-02-11T03:16:20;98243.03;;;-3.90;79.92
4012;BME280;2020;48.682;9.024;2023-02-11T03:18:51;98241.28;;;-3.85;79.70
4012;BME280;2020;48.682;9.024;2023-02-11T03:21:19;98231.97;;;-3.88;79.93
4012;BME280;2020;48.682;9.024;2023-02-11T03:23:55;98225.16;;;-3.86;79.37
4012;BME280;2020;48.682;9.024;2023-02-11T03:26:36;98237.06;;;-3.88;79.39
4012;BME280;2020;48.682;9.024;2023-02-11T03:29:09;98233.69;;;-3.90;80.21
4012;BME280;2020;48.682;9.024;2023-02-11T03:34:14;98250.56;;;-3.83;80.62
4012;BME280;2020;48.682;9.024;2023-02-11T03:39:33;98254.84;;;-3.86;81.21
4012;BME280;2020;48.682;9.024;2023-02-11T03:42:01;98231.91;;;-3.85;80.33
4012;BME280;2020;48.682;9.024;2023-02-11T03:44:31;98226.91;;;-3.91;80.17
4012;BME280;2020;48.682;9.024;2023-02-11T03:46:59;98225.31;;;-3.98;80.83
4012;BME280;2020;48.682;9.024;2023-02-11T03:49:25;98225.38;;;-4.01;80.91
4012;BME280;2020;48.682;9.024;2023-02-11T03:51:52;98224.59;;;-4.06;81.15
4012;BME280;2020;48.682;9.024;2023-02-11T03:54:23;98232.22;;;-4.06;81.22
4012;BME280;2020;48.682;9.024;2023-02-11T03:56:56;98227.19;;;-4.09;81.59
4012;BME280;2020;48.682;9.024;2023-02-11T03:59:22;98232.22;;;-4.06;82.00
4012;BME280;2020;48.682;9.024;2023-02-11T04:01:47;98237.28;;;-4.03;81.49
4012;BME280;2020;48.682;9.024;2023-02-11T04:04:12;98238.88;;;-3.96;81.87
4012;BME280;2020;48.682;9.024;2023-02-11T04:06:38;98235.41;;;-3.92;81.65
4012;BME280;2020;48.682;9.024;2023-02-11T04:09:03;98237.16;;;-3.94;81.66
4012;BME280;2020;48.682;9.024;2023-02-11T04:11:28;98224.53;;;-4.02;81.63
4012;BME280;2020;48.682;9.024;2023-02-11T04:13:54;98229.69;;;-4.08;81.82
4012;BME280;2020;48.682;9.024;2023-02-11T04:16:19;98227.28;;;-4.16;82.30
4012;BME280;2020;48.682;9.024;2023-02-11T04:18:44;98227.22;;;-4.13;82.46
4012;BME280;2020;48.682;9.024;2023-02-11T04:21:09;98234.81;;;-4.11;82.67
4012;BME280;2020;48.682;9.024;2023-02-11T04:23:35;98236.47;;;-4.05;82.91
4012;BME280;2020;48.682;9.024;2023-02-11T04:26:00;98242.28;;;-3.97;83.01
4012;BME280;2020;48.682;9.024;2023-02-11T04:28:26;98248.97;;;-3.90;82.97
4012;BME280;2020;48.682;9.024;2023-02-11T04:30:53;98259.09;;;-3.87;83.81
4012;BME280;2020;48.682;9.024;2023-02-11T04:33:19;98253.09;;;-3.83;83.84
4012;BME280;2020;48.682;9.024;2023-02-11T04:35:44;98255.63;;;-3.83;83.12
4012;BME280;2020;48.682;9.024;2023-02-11T04:38:09;98258.09;;;-3.76;83.65
4012;BME280;2020;48.682;9.024;2023-02-11T04:40:34;98254.69;;;-3.75;83.45
4012;BME280;2020;48.682;9.024;2023-02-11T04:43:00;98246.19;;;-3.74;83.34
4012;BME280;2020;48.682;9.024;2023-02-11T04:45:25;98250.47;;;-3.76;84.22
4012;BME280;2020;48.682;9.024;2023-02-11T04:47:50;98257.28;;;-3.78;83.89
4012;BME280;2020;48.682;9.024;2023-02-11T04:50:15;98247.91;;;-3.76;84.13
4012;BME280;2020;48.682;9.024;2023-02-11T04:52:41;98245.31;;;-3.73;83.66
4012;BME280;2020;48.682;9.024;2023-02-11T04:55:06;98241.09;;;-3.73;83.87
4012;BME280;2020;48.682;9.024;2023-02-11T04:57:32;98239.28;;;-3.66;84.84
4012;BME280;2020;48.682;9.024;2023-02-11T04:59:57;98238.38;;;-3.62;84.84
4012;BME280;2020;48.682;9.024;2023-02-11T05:02:22;98241.69;;;-3.57;84.78
4012;BME280;2020;48.682;9.024;2023-02-11T05:04:47;98239.94;;;-3.55;84.32
4012;BME280;2020;48.682;9.024;2023-02-11T05:07:13;98229.72;;;-3.52;84.72
4012;BME280;2020;48.682;9.024;2023-02-11T05:09:38;98238.03;;;-3.40;84.35
4012;BME280;2020;48.682;9.024;2023-02-11T05:12:03;98237.97;;;-3.37;84.65
4012;BME280;2020;48.682;9.024;2023-02-11T05:14:28;98233.69;;;-3.35;84.66
4012;BME280;2020;48.682;9.024;2023-02-11T05:16:54;98232.75;;;-3.28;84.86
4012;BME280;2020;48.682;9.024;2023-02-11T05:19:19;98225.97;;;-3.29;85.19
4012;BME280;2020;48.682;9.024;2023-02-11T05:21:44;98227.59;;;-3.25;85.07
4012;BME280;2020;48.682;9.024;2023-02-11T05:24:09;98227.59;;;-3.25;85.23
4012;BME280;2020;48.682;9.024;2023-02-11T05:26:35;98223.38;;;-3.26;85.22
4012;BME280;2020;48.682;9.024;2023-02-11T05:29:00;98202.13;;;-3.25;85.48
4012;BME280;2020;48.682;9.024;2023-02-11T05:31:25;98195.25;;;-3.19;85.16
4012;BME280;2020;48.682;9.024;2023-02-11T05:33:51;98187.56;;;-3.18;85.21
4012;BME280;2020;48.682;9.024;2023-02-11T05:36:16;98183.44;;;-3.24;85.78
4012;BME280;2020;48.682;9.024;2023-02-11T05:38:41;98171.53;;;-3.21;86.08
4012;BME280;2020;48.682;9.024;2023-02-11T05:41:09;98160.41;;;-3.19;85.96
4012;BME280;2020;48.682;9.024;2023-02-11T05:43:35;98161.38;;;-3.25;85.80
4012;BME280;2020;48.682;9.024;2023-02-11T05:46:01;98166.47;;;-3.25;86.71
4012;BME280;2020;48.682;9.024;2023-02-11T05:48:26;98165.47;;;-3.16;86.94
4012;BME280;2020;48.682;9.024;2023-02-11T05:50:51;98163.66;;;-3.11;86.20
4012;BME280;2020;48.682;9.024;2023-02-11T05:53:17;98172.03;;;-3.04;86.45
4012;BME280;2020;48.682;9.024;2023-02-11T05:55:42;98169.44;;;-3.01;86.58
4012;BME280;2020;48.682;9.024;2023-02-11T05:58:07;98168.38;;;-2.90;86.78
4012;BME280;2020;48.682;9.024;2023-02-11T06:00:33;98170.81;;;-2.84;86.34
4012;BME280;2020;48.682;9.024;2023-02-11T06:02:58;98167.28;;;-2.77;86.49
4012;BME280;2020;48.682;9.024;2023-02-11T06:05:24;98151.91;;;-2.74;86.35
4012;BME280;2020;48.682;9.024;2023-02-11T06:07:49;98160.44;;;-2.75;87.32
4012;BME280;2020;48.682;9.024;2023-02-11T06:10:14;98168.91;;;-2.73;87.25
4012;BME280;2020;48.682;9.024;2023-02-11T06:12:39;98174.81;;;-2.71;87.29
4012;BME280;2020;48.682;9.024;2023-02-11T06:15:05;98170.44;;;-2.66;87.12
4012;BME280;2020;48.682;9.024;2023-02-11T06:17:31;98177.09;;;-2.58;86.81
4012;BME280;2020;48.682;9.024;2023-02-11T06:19:58;98181.31;;;-2.56;87.14
4012;BME280;2020;48.682;9.024;2023-02-11T06:22:23;98185.47;;;-2.52;87.27
4012;BME280;2020;48.682;9.024;2023-02-11T06:24:49;98192.28;;;-2.52;87.58
4012;BME280;2020;48.682;9.024;2023-02-11T06:27:14;98210.94;;;-2.50;87.72
4012;BME280;2020;48.682;9.024;2023-02-11T06:29:39;98219.38;;;-2.48;87.57
4012;BME280;2020;48.682;9.024;2023-02-11T06:32:05;98215.13;;;-2.47;87.51
4012;BME280;2020;48.682;9.024;2023-02-11T06:34:30;98217.75;;;-2.51;87.45
4012;BME280;2020;48.682;9.024;2023-02-11T06:36:55;98211.69;;;-2.45;87.03
4012;BME280;2020;48.682;9.024;2023-02-11T06:39:20;98200.66;;;-2.47;87.54
4012;BME280;2020;48.682;9.024;2023-02-11T06:41:46;98203.97;;;-2.42;87.25
4012;BME280;2020;48.682;9.024;2023-02-11T06:44:11;98207.38;;;-2.43;87.25
4012;BME280;2020;48.682;9.024;2023-02-11T06:46:36;98204.03;;;-2.45;87.58
4012;BME280;2020;48.682;9.024;2023-02-11T06:49:02;98199.06;;;-2.51;87.93
4012;BME280;2020;48.682;9.024;2023-02-11T06:51:27;98197.28;;;-2.47;88.71
4012;BME280;2020;48.682;9.024;2023-02-11T06:53:52;98197.13;;;-2.40;88.12
4012;BME280;2020;48.682;9.024;2023-02-11T06:56:20;98190.28;;;-2.38;87.43
4012;BME280;2020;48.682;9.024;2023-02-11T06:58:46;98198.72;;;-2.36;87.79
4012;BME280;2020;48.682;9.024;2023-02-11T07:01:14;98196.97;;;-2.33;87.38
4012;BME280;2020;48.682;9.024;2023-02-11T07:03:41;98204.69;;;-2.35;87.94
4012;BME280;2020;48.682;9.024;2023-02-11T07:06:11;98212.22;;;-2.30;87.92
4012;BME280;2020;48.682;9.024;2023-02-11T07:08:37;98212.22;;;-2.30;87.99
4012;BME280;2020;48.682;9.024;2023-02-11T07:11:13;98212.09;;;-2.24;87.94
4012;BME280;2020;48.682;9.024;2023-02-11T07:13:39;98225.59;;;-2.19;87.95
4012;BME280;2020;48.682;9.024;2023-02-11T07:16:06;98231.47;;;-2.15;88.07
4012;BME280;2020;48.682;9.024;2023-02-11T07:18:32;98232.19;;;-2.09;87.38
4012;BME280;2020;48.682;9.024;2023-02-11T07:20:57;98229.66;;;-2.10;87.18
4012;BME280;2020;48.682;9.024;2023-02-11T07:23:22;98224.44;;;-2.06;87.45
4012;BME280;2020;48.682;9.024;2023-02-11T07:25:48;98218.66;;;-2.12;86.83
4012;BME280;2020;48.682;9.024;2023-02-11T07:28:13;98216.88;;;-2.09;88.15
4012;BME280;2020;48.682;9.024;2023-02-11T07:30:38;98216.78;;;-2.06;87.69
4012;BME280;2020;48.682;9.024;2023-02-11T07:33:03;98215.91;;;-2.04;87.39
4012;BME280;2020;48.682;9.024;2023-02-11T07:35:29;98211.69;;;-2.06;87.58
4012;BME280;2020;48.682;9.024;2023-02-11T07:37:54;98209.94;;;-2.03;87.61
4012;BME280;2020;48.682;9.024;2023-02-11T07:40:19;98213.38;;;-2.04;87.50
4012;BME280;2020;48.682;9.024;2023-02-11T07:42:44;98214.88;;;-1.94;86.64
4012;BME280;2020;48.682;9.024;2023-02-11T07:45:10;98226.41;;;-1.78;86.73
4012;BME280;2020;48.682;9.024;2023-02-11T07:47:35;98234.38;;;-1.54;86.05
4012;BME280;2020;48.682;9.024;2023-02-11T07:50:01;98238.22;;;-1.37;86.38
4012;BME280;2020;48.682;9.024;2023-02-11T07:52:29;98237.97;;;-1.26;84.62
4012;BME280;2020;48.682;9.024;2023-02-11T07:54:55;98233.38;;;-1.13;84.42
4012;BME280;2020;48.682;9.024;2023-02-11T07:57:21;98234.66;;;-0.97;83.43
4012;BME280;2020;48.682;9.024;2023-02-11T07:59:46;98226.13;;;-0.96;81.79
4012;BME280;2020;48.682;9.024;2023-02-11T08:02:11;98224.34;;;-0.94;82.44
4012;BME280;2020;48.682;9.024;2023-02-11T08:04:36;98225.94;;;-0.90;81.50
4012;BME280;2020;48.682;9.024;2023-02-11T08:07:02;98224.13;;;-0.84;82.53
4012;BME280;2020;48.682;9.024;2023-02-11T08:09:27;98218.91;;;-0.81;80.65
4012;BME280;2020;48.682;9.024;2023-02-11T08:11:52;98217.13;;;-0.78;80.75
4012;BME280;2020;48.682;9.024;2023-02-11T08:14:17;98206.34;;;-0.89;80.07
4012;BME280;2020;48.682;9.024;2023-02-11T08:16:44;98207.97;;;-0.86;81.20
4012;BME280;2020;48.682;9.024;2023-02-11T08:19:12;98210.53;;;-0.86;81.29
4012;BME280;2020;48.682;9.024;2023-02-11T08:21:39;98201.97;;;-0.85;81.07
4012;BME280;2020;48.682;9.024;2023-02-11T08:24:05;98208.69;;;-0.81;81.39
4012;BME280;2020;48.682;9.024;2023-02-11T08:26:31;98206.13;;;-0.81;81.19
4012;BME280;2020;48.682;9.024;2023-02-11T08:29:00;98199.97;;;-0.74;81.61
4012;BME280;2020;48.682;9.024;2023-02-11T08:31:29;98188.66;;;-0.65;81.32
4012;BME280;2020;48.682;9.024;2023-02-11T08:33:55;98193.50;;;-0.54;81.12
4012;BME280;2020;48.682;9.024;2023-02-11T08:36:25;98195.78;;;-0.45;81.70
4012;BME280;2020;48.682;9.024;2023-02-11T08:38:53;98198.94;;;-0.37;81.17
4012;BME280;2020;48.682;9.024;2023-02-11T08:41:18;98200.63;;;-0.36;81.00
4012;BME280;2020;48.682;9.024;2023-02-11T08:43:44;98210.69;;;-0.30;80.69
4012;BME280;2020;48.682;9.024;2023-02-11T08:46:12;98222.41;;;-0.22;80.70
4012;BME280;2020;48.682;9.024;2023-02-11T08:48:38;98211.91;;;-0.13;79.78
4012;BME280;2020;48.682;9.024;2023-02-11T08:51:08;98215.97;;;-0.06;79.66
4012;BME280;2020;48.682;9.024;2023-02-11T08:53:34;98216.28;;;0.12;80.16
4012;BME280;2020;48.682;9.024;2023-02-11T08:56:00;98223.38;;;0.32;79.32
4012;BME280;2020;48.682;9.024;2023-02-11T08:58:25;98216.13;;;0.72;79.15
4012;BME280;2020;48.682;9.024;2023-02-11T09:00:50;98209.41;;;1.19;77.27
4012;BME280;2020;48.682;9.024;2023-02-11T09:03:16;98203.94;;;1.53;75.04
4012;BME280;2020;48.682;9.024;2023-02-11T09:05:43;98193.69;;;1.75;73.79
4012;BME280;2020;48.682;9.024;2023-02-11T09:08:08;98200.16;;;1.86;73.14
4012;BME280;2020;48.682;9.024;2023-02-11T09:10:34;98198.03;;;1.73;72.52
4012;BME280;2020;48.682;9.024;2023-02-11T09:12:59;98199.91;;;1.92;73.79
4012;BME280;2020;48.682;9.024;2023-02-11T09:15:25;98185.00;;;2.02;72.57
4012;BME280;2020;48.682;9.024;2023-02-11T09:17:50;98192.88;;;1.97;71.49
4012;BME280;2020;48.682;9.024;2023-02-11T09:20:16;98205.19;;;2.33;71.85
4012;BME280;2020;48.682;9.024;2023-02-11T09:22:41;98202.91;;;2.69;71.43
4012;BME280;2020;48.682;9.024;2023-02-11T09:25:06;98208.06;;;2.89;70.44
4012;BME280;2020;48.682;9.024;2023-02-11T09:27:32;98201.38;;;2.85;69.32
4012;BME280;2020;48.682;9.024;2023-02-11T09:29:57;98203.06;;;2.86;69.58
4012;BME280;2020;48.682;9.024;2023-02-11T09:32:22;98198.78;;;3.06;71.36
4012;BME280;2020;48.682;9.024;2023-02-11T09:34:48;98196.06;;;3.30;70.06
4012;BME280;2020;48.682;9.024;2023-02-11T09:37:13;98198.13;;;3.42;70.64
4012;BME280;2020;48.682;9.024;2023-02-11T09:39:38;98200.00;;;3.58;69.29
4012;BME280;2020;48.682;9.024;2023-02-11T09:44:51;98187.75;;;3.82;66.66
4012;BME280;2020;48.682;9.024;2023-02-11T09:47:23;98182.44;;;4.04;66.09
4012;BME280;2020;48.682;9.024;2023-02-11T09:49:53;98176.22;;;4.08;66.62
4012;BME280;2020;48.682;9.024;2023-02-11T09:55:01;98183.56;;;4.53;63.56
4012;BME280;2020;48.682;9.024;2023-02-11T09:57:31;98185.41;;;4.68;65.01
4012;BME280;2020;48.682;9.024;2023-02-11T09:59:57;98193.91;;;4.88;65.66
4012;BME280;2020;48.682;9.024;2023-02-11T10:02:28;98198.75;;;4.94;62.62
4012;BME280;2020;48.682;9.024;2023-02-11T10:05:24;98204.22;;;4.88;64.92
4012;BME280;2020;48.682;9.024;2023-02-11T10:08:08;98208.44;;;5.07;64.22
4012;BME280;2020;48.682;9.024;2023-02-11T10:10:45;98204.00;;;5.26;64.12
4012;BME280;2020;48.682;9.024;2023-02-11T10:23:51;98201.00;;;5.18;62.20
4012;BME280;2020;48.682;9.024;2023-02-11T10:26:19;98203.75;;;5.65;62.57
4012;BME280;2020;48.682;9.024;2023-02-11T10:28:50;98196.19;;;5.78;59.24
4012;BME280;2020;48.682;9.024;2023-02-11T10:31:27;98200.59;;;5.92;59.64
4012;BME280;2020;48.682;9.024;2023-02-11T10:34:02;98204.69;;;5.80;59.18
4012;BME280;2020;48.682;9.024;2023-02-11T10:36:32;98199.94;;;5.88;59.40
4012;BME280;2020;48.682;9.024;2023-02-11T10:38:58;98200.47;;;6.11;59.69
4012;BME280;2020;48.682;9.024;2023-02-11T10:41:33;98205.13;;;6.20;57.85
4012;BME280;2020;48.682;9.024;2023-02-11T10:44:00;98197.81;;;6.12;59.14
4012;BME280;2020;48.682;9.024;2023-02-11T10:46:30;98194.94;;;6.33;58.49
4012;BME280;2020;48.682;9.024;2023-02-11T10:48:56;98196.59;;;6.34;56.21
4012;BME280;2020;48.682;9.024;2023-02-11T10:51:27;98191.38;;;6.50;58.51
4012;BME280;2020;48.682;9.024;2023-02-11T10:56:41;98177.84;;;7.06;57.20
4012;BME280;2020;48.682;9.024;2023-02-11T10:59:29;98168.84;;;6.97;57.70
4012;BME280;2020;48.682;9.024;2023-02-11T11:02:00;98162.94;;;6.95;55.73
4012;BME280;2020;48.682;9.024;2023-02-11T11:06:55;98154.25;;;7.40;57.89
4012;BME280;2020;48.682;9.024;2023-02-11T11:09:29;98151.28;;;7.60;56.28
4012;BME280;2020;48.682;9.024;2023-02-11T11:11:55;98153.25;;;7.84;56.39
4012;BME280;2020;48.682;9.024;2023-02-11T11:14:22;98155.22;;;7.66;55.66
4012;BME280;2020;48.682;9.024;2023-02-11T11:16:53;98148.47;;;7.78;54.11
4012;BME280;2020;48.682;9.024;2023-02-11T11:19:24;98155.69;;;7.73;54.55
4012;BME280;2020;48.682;9.024;2023-02-11T11:21:54;98146.59;;;7.80;55.31
4012;BME280;2020;48.682;9.024;2023-02-11T11:24:27;98147.56;;;8.07;55.12
4012;BME280;2020;48.682;9.024;2023-02-11T11:26:59;98148.38;;;8.07;55.61
4012;BME280;2020;48.682;9.024;2023-02-11T11:29:33;98147.28;;;7.97;54.78
4012;BME280;2020;48.682;9.024;2023-02-11T11:32:13;98139.84;;;8.05;53.09
4012;BME280;2020;48.682;9.024;2023-02-11T11:34:43;98138.91;;;8.33;53.28
4012;BME280;2020;48.682;9.024;2023-02-11T11:37:19;98147.59;;;8.60;52.17
4012;BME280;2020;48.682;9.024;2023-02-11T11:39:58;98150.75;;;8.65;52.96
4012;BME280;2020;48.682;9.024;2023-02-11T11:42:33;98148.16;;;8.65;51.87
4012;BME280;2020;48.682;9.024;2023-02-11T11:45:23;98151.06;;;8.73;52.96
4012;BME280;2020;48.682;9.024;2023-02-11T11:48:05;98145.66;;;8.76;52.94
4012;BME280;2020;48.682;9.024;2023-02-11T11:51:00;98136.66;;;8.42;51.65
4012;BME280;2020;48.682;9.024;2023-02-11T11:54:01;98135.59;;;8.44;53.55
4012;BME280;2020;48.682;9.024;2023-02-11T11:56:29;98132.16;;;8.71;51.92
4012;BME280;2020;48.682;9.024;2023-02-11T11:58:59;98126.13;;;8.97;51.38
4012;BME280;2020;48.682;9.024;2023-02-11T12:09:42;98133.47;;;9.42;49.04
4012;BME280;2020;48.682;9.024;2023-02-11T12:23:37;98121.63;;;9.75;48.67
4012;BME280;2020;48.682;9.024;2023-02-11T12:26:15;98126.75;;;10.01;47.75
4012;BME280;2020;48.682;9.024;2023-02-11T12:37:16;98124.84;;;9.28;48.82
4012;BME280;2020;48.682;9.024;2023-02-11T12:40:13;98117.22;;;9.51;47.81
4012;BME280;2020;48.682;9.024;2023-02-11T12:48:51;98122.75;;;10.08;48.40
4012;BME280;2020;48.682;9.024;2023-02-11T12:54:45;98116.91;;;10.29;46.83
4012;BME280;2020;48.682;9.024;2023-02-11T12:57:18;98119.06;;;10.35;46.63
4012;BME280;2020;48.682;9.024;2023-02-11T13:00:04;98121.97;;;10.43;47.33
4012;BME280;2020;48.682;9.024;2023-02-11T13:02:58;98114.03;;;10.45;45.64
4012;BME280;2020;48.682;9.024;2023-02-11T13:05:37;98117.53;;;10.68;46.59
4012;BME280;2020;48.682;9.024;2023-02-11T13:08:13;98114.72;;;10.94;45.91
4012;BME280;2020;48.682;9.024;2023-02-11T13:10:41;98106.44;;;11.11;44.83
4012;BME280;2020;48.682;9.024;2023-02-11T13:13:17;98110.38;;;10.47;46.52
4012;BME280;2020;48.682;9.024;2023-02-11T13:16:02;98106.38;;;10.55;46.70
4012;BME280;2020;48.682;9.024;2023-02-11T13:18:38;98097.41;;;10.93;46.90
4012;BME280;2020;48.682;9.024;2023-02-11T13:29:17;98077.63;;;11.36;45.37
4012;BME280;2020;48.682;9.024;2023-02-11T13:31:56;98077.75;;;11.23;43.49
4012;BME280;2020;48.682;9.024;2023-02-11T13:34:53;98075.38;;;11.43;45.43
4012;BME280;2020;48.682;9.024;2023-02-11T13:40:02;98078.69;;;11.56;45.25
4012;BME280;2020;48.682;9.024;2023-02-11T13:42:29;98081.53;;;11.41;45.94
4012;BME280;2020;48.682;9.024;2023-02-11T13:44:55;98073.94;;;11.50;46.36
4012;BME280;2020;48.682;9.024;2023-02-11T13:47:39;98078.84;;;11.76;45.09
4012;BME280;2020;48.682;9.024;2023-02-11T13:50:06;98084.81;;;11.66;45.69
4012;BME280;2020;48.682;9.024;2023-02-11T13:52:37;98080.25;;;11.80;45.67
4012;BME280;2020;48.682;9.024;2023-02-11T13:57:38;98090.34;;;11.73;44.69
4012;BME280;2020;48.682;9.024;2023-02-11T14:14:21;98075.88;;;11.80;46.65
4012;BME280;2020;48.682;9.024;2023-02-11T14:19:42;98070.13;;;11.65;46.52
4012;BME280;2020;48.682;9.024;2023-02-11T14:27:26;98075.53;;;11.74;46.78
4012;BME280;2020;48.682;9.024;2023-02-11T14:35:28;98076.03;;;11.67;47.34
4012;BME280;2020;48.682;9.024;2023-02-11T14:43:26;98093.16;;;11.49;47.86
4012;BME280;2020;48.682;9.024;2023-02-11T14:45:53;98091.03;;;11.31;49.48
4012;BME280;2020;48.682;9.024;2023-02-11T14:48:23;98085.59;;;11.34;48.80
4012;BME280;2020;48.682;9.024;2023-02-11T14:51:07;98093.25;;;11.47;49.04
4012;BME280;2020;48.682;9.024;2023-02-11T14:53:35;98093.13;;;11.60;49.34
4012;BME280;2020;48.682;9.024;2023-02-11T14:56:02;98084.88;;;11.44;48.32
4012;BME280;2020;48.682;9.024;2023-02-11T14:58:31;98095.88;;;11.24;49.14
4012;BME280;2020;48.682;9.024;2023-02-11T15:00:59;98087.00;;;11.16;49.37
4012;BME280;2020;48.682;9.024;2023-02-11T15:03:40;98091.97;;;11.19;49.20
4012;BME280;2020;48.682;9.024;2023-02-11T15:06:30;98100.53;;;11.32;48.98
4012;BME280;2020;48.682;9.024;2023-02-11T15:08:59;98109.50;;;11.17;49.71
4012;BME280;2020;48.682;9.024;2023-02-11T15:11:29;98109.75;;;11.14;50.02
4012;BME280;2020;48.682;9.024;2023-02-11T15:13:57;98110.00;;;11.33;49.34
4012;BME280;2020;48.682;9.024;2023-02-11T15:16:26;98110.25;;;11.30;49.36
4012;BME280;2020;48.682;9.024;2023-02-11T15:18:53;98105.94;;;11.18;49.69
4012;BME280;2020;48.682;9.024;2023-02-11T15:21:25;98110.69;;;11.24;50.04
4012;BME280;2020;48.682;9.024;2023-02-11T15:24:25;98102.63;;;11.16;50.19
4012;BME280;2020;48.682;9.024;2023-02-11T15:27:14;98104.53;;;11.36;48.88
4012;BME280;2020;48.682;9.024;2023-02-11T15:29:49;98102.38;;;11.53;48.12
4012;BME280;2020;48.682;9.024;2023-02-11T15:32:22;98103.81;;;11.46;48.04
4012;BME280;2020;48.682;9.024;2023-02-11T15:34:50;98109.47;;;11.62;46.92
4012;BME280;2020;48.682;9.024;2023-02-11T15:37:24;98106.63;;;11.65;46.65
4012;BME280;2020;48.682;9.024;2023-02-11T15:39:51;98106.78;;;11.96;45.56
4012;BME280;2020;48.682;9.024;2023-02-11T15:42:29;98106.84;;;12.39;44.57
4012;BME280;2020;48.682;9.024;2023-02-11T15:47:41;98111.63;;;12.34;44.47
4012;BME280;2020;48.682;9.024;2023-02-11T15:52:45;98124.03;;;11.65;45.67
4012;BME280;2020;48.682;9.024;2023-02-11T15:55:13;98123.47;;;10.93;46.63
4012;BME280;2020;48.682;9.024;2023-02-11T15:57:52;98127.06;;;10.56;47.62
4012;BME280;2020;48.682;9.024;2023-02-11T16:00:21;98130.06;;;10.03;48.63
4012;BME280;2020;48.682;9.024;2023-02-11T16:02:47;98123.22;;;9.64;49.30